< Typhoon 200012 2000 Season Typhoon 200014 >
Typhoon 200013 (MARIA)
General InformationDetailed Track InformationTrack Information on Google MapsList of All Images || Disaster Info.ResourceGoogle EarthGE AnimationAtom FeedGeoJSON
Detalied Best Track Wind (Time Zone = UTC)
Year Month Day Hour Lat. Long. Wind (kt) Gust (kt) Direc. of Major Storm Axis Radius of Major Storm Axis (nm) Radius of Minor Storm Axis (nm) Direc. of Major Gale Axis Radius of Major Gale Axis (nm) Radius of Minor Gale Axis (nm) Image
2000 8 27 06 21.6 115.0 0 0 - - - - - - Image
2000 8 27 12 21.3 115.2 0 0 - - - - - - Image
2000 8 27 18 21.2 115.5 0 0 - - - - - - Image
2000 8 28 00 21.2 115.9 0 0 - - - - - - Image
2000 8 28 06 20.8 115.7 0 0 - - - - - - Image
2000 8 28 12 20.2 115.2 35 0 - - - symmetric 160 160 Image
2000 8 28 18 19.6 115.0 35 0 - - - symmetric 160 160 Image
2000 8 29 00 19.1 115.3 35 0 - - - symmetric 160 160 Image
2000 8 29 06 18.6 115.6 35 0 - - - symmetric 160 160 Image
2000 8 29 12 18.2 115.7 35 0 - - - symmetric 160 160 Image
2000 8 29 18 18.1 115.8 35 0 - - - symmetric 160 160 Image
2000 8 30 00 18.0 115.6 35 0 - - - symmetric 160 160 Image
2000 8 30 06 18.2 115.1 35 0 - - - symmetric 160 160 Image
2000 8 30 12 19.0 115.9 35 0 - - - symmetric 150 150 Image
2000 8 30 18 19.4 116.0 35 0 - - - symmetric 150 150 Image
2000 8 31 00 20.2 116.1 40 0 - - - symmetric 150 150 Image
2000 8 31 06 21.0 115.6 40 0 - - - symmetric 150 150 Image
2000 8 31 12 21.8 115.4 40 0 - - - symmetric 130 130 Image
2000 8 31 18 22.4 115.3 40 0 - - - S 150 60 Image
2000 9 1 00 23.4 114.5 35 0 - - - S 150 60 Image
2000 9 1 06 24.6 114.4 0 0 - - - - - - Image
2000 9 1 12 25.4 114.6 0 0 - - - - - - Image
2000 9 1 18 26.7 114.2 0 0 - - - - - - Image
2000 9 2 00 27.5 113.7 0 0 - - - - - - Image
2000 9 2 06 28.7 113.4 0 0 - - - - - - Image
2000 9 2 12 29.5 112.5 0 0 - - - - - - Image
2000 9 2 18 29.8 111.7 0 0 - - - - - - Image
Japan Meteorological Agency Best Track Data | Correction Date : 2001-12-21
< Typhoon 200012 2000 Season Typhoon 200014 >

Help